sensor_id;sensor_type;location;lat;lon;timestamp;P1;durP1;ratioP1;P2;durP2;ratioP2
43504;SDS011;29098;48.184;16.298;2023-06-10T00:01:40;14.45;;;7.88;;
43504;SDS011;29098;48.184;16.298;2023-06-10T00:04:06;12.25;;;4.57;;
43504;SDS011;29098;48.184;16.298;2023-06-10T00:06:32;14.10;;;6.00;;
43504;SDS011;29098;48.184;16.298;2023-06-10T00:09:02;26.83;;;9.70;;
43504;SDS011;29098;48.184;16.298;2023-06-10T00:11:35;9.27;;;4.80;;
43504;SDS011;29098;48.184;16.298;2023-06-10T00:14:01;16.65;;;7.25;;
43504;SDS011;29098;48.184;16.298;2023-06-10T00:16:26;18.23;;;7.75;;
43504;SDS011;29098;48.184;16.298;2023-06-10T00:18:52;15.20;;;7.00;;
43504;SDS011;29098;48.184;16.298;2023-06-10T00:21:17;11.32;;;4.75;;
43504;SDS011;29098;48.184;16.298;2023-06-10T00:23:44;12.02;;;5.35;;
43504;SDS011;29098;48.184;16.298;2023-06-10T00:26:09;13.73;;;6.05;;
43504;SDS011;29098;48.184;16.298;2023-06-10T00:28:35;16.45;;;6.13;;
43504;SDS011;29098;48.184;16.298;2023-06-10T00:31:00;9.60;;;5.30;;
43504;SDS011;29098;48.184;16.298;2023-06-10T00:33:27;6.50;;;3.90;;
43504;SDS011;29098;48.184;16.298;2023-06-10T00:35:53;7.95;;;4.85;;
43504;SDS011;29098;48.184;16.298;2023-06-10T00:38:18;24.90;;;8.93;;
43504;SDS011;29098;48.184;16.298;2023-06-10T00:40:44;18.90;;;8.23;;
43504;SDS011;29098;48.184;16.298;2023-06-10T00:43:09;14.45;;;6.85;;
43504;SDS011;29098;48.184;16.298;2023-06-10T00:45:35;23.27;;;8.50;;
43504;SDS011;29098;48.184;16.298;2023-06-10T00:48:00;12.95;;;6.03;;
43504;SDS011;29098;48.184;16.298;2023-06-10T00:50:26;48.45;;;17.58;;
43504;SDS011;29098;48.184;16.298;2023-06-10T00:52:53;11.65;;;6.60;;
43504;SDS011;29098;48.184;16.298;2023-06-10T00:55:19;14.23;;;6.00;;
43504;SDS011;29098;48.184;16.298;2023-06-10T00:57:45;11.63;;;5.45;;
43504;SDS011;29098;48.184;16.298;2023-06-10T01:00:13;20.33;;;7.88;;
43504;SDS011;29098;48.184;16.298;2023-06-10T01:02:40;11.90;;;5.40;;
43504;SDS011;29098;48.184;16.298;2023-06-10T01:05:06;13.20;;;6.38;;
43504;SDS011;29098;48.184;16.298;2023-06-10T01:07:36;20.23;;;8.57;;
43504;SDS011;29098;48.184;16.298;2023-06-10T01:10:16;13.95;;;6.30;;
43504;SDS011;29098;48.184;16.298;2023-06-10T01:12:59;15.05;;;8.00;;
43504;SDS011;29098;48.184;16.298;2023-06-10T01:15:31;7.05;;;4.43;;
43504;SDS011;29098;48.184;16.298;2023-06-10T01:20:27;12.75;;;6.00;;
43504;SDS011;29098;48.184;16.298;2023-06-10T01:22:56;11.13;;;6.25;;
43504;SDS011;29098;48.184;16.298;2023-06-10T01:25:23;18.60;;;9.77;;
43504;SDS011;29098;48.184;16.298;2023-06-10T01:27:52;8.70;;;4.78;;
43504;SDS011;29098;48.184;16.298;2023-06-10T01:30:22;9.27;;;5.05;;
43504;SDS011;29098;48.184;16.298;2023-06-10T01:32:54;21.88;;;9.70;;
43504;SDS011;29098;48.184;16.298;2023-06-10T01:35:24;14.80;;;6.22;;
43504;SDS011;29098;48.184;16.298;2023-06-10T01:37:51;13.35;;;5.40;;
43504;SDS011;29098;48.184;16.298;2023-06-10T01:40:20;12.32;;;5.75;;
43504;SDS011;29098;48.184;16.298;2023-06-10T01:42:45;12.70;;;6.15;;
43504;SDS011;29098;48.184;16.298;2023-06-10T01:45:11;13.02;;;5.78;;
43504;SDS011;29098;48.184;16.298;2023-06-10T01:47:37;15.25;;;6.85;;
43504;SDS011;29098;48.184;16.298;2023-06-10T01:50:02;8.07;;;4.75;;
43504;SDS011;29098;48.184;16.298;2023-06-10T01:52:28;13.27;;;6.47;;
43504;SDS011;29098;48.184;16.298;2023-06-10T01:54:53;8.52;;;5.07;;
43504;SDS011;29098;48.184;16.298;2023-06-10T01:57:19;11.05;;;5.70;;
43504;SDS011;29098;48.184;16.298;2023-06-10T01:59:44;7.47;;;4.43;;
43504;SDS011;29098;48.184;16.298;2023-06-10T02:02:11;12.93;;;6.20;;
43504;SDS011;29098;48.184;16.298;2023-06-10T02:04:36;11.88;;;6.30;;
43504;SDS011;29098;48.184;16.298;2023-06-10T02:07:02;7.55;;;4.68;;
43504;SDS011;29098;48.184;16.298;2023-06-10T02:09:29;7.45;;;4.90;;
43504;SDS011;29098;48.184;16.298;2023-06-10T02:11:55;6.40;;;4.70;;
43504;SDS011;29098;48.184;16.298;2023-06-10T02:14:21;7.32;;;5.32;;
43504;SDS011;29098;48.184;16.298;2023-06-10T02:16:46;6.68;;;4.55;;
43504;SDS011;29098;48.184;16.298;2023-06-10T02:19:13;6.45;;;4.30;;
43504;SDS011;29098;48.184;16.298;2023-06-10T02:21:39;6.25;;;4.50;;
43504;SDS011;29098;48.184;16.298;2023-06-10T02:24:04;6.72;;;4.13;;
43504;SDS011;29098;48.184;16.298;2023-06-10T02:26:30;6.70;;;4.07;;
43504;SDS011;29098;48.184;16.298;2023-06-10T02:28:56;7.05;;;4.18;;
43504;SDS011;29098;48.184;16.298;2023-06-10T02:31:22;11.88;;;4.88;;
43504;SDS011;29098;48.184;16.298;2023-06-10T02:33:50;8.95;;;4.80;;
43504;SDS011;29098;48.184;16.298;2023-06-10T02:36:15;8.02;;;5.03;;
43504;SDS011;29098;48.184;16.298;2023-06-10T02:38:41;8.80;;;4.97;;
43504;SDS011;29098;48.184;16.298;2023-06-10T02:41:07;8.73;;;5.10;;
43504;SDS011;29098;48.184;16.298;2023-06-10T02:43:32;7.88;;;4.75;;
43504;SDS011;29098;48.184;16.298;2023-06-10T02:45:58;8.10;;;5.28;;
43504;SDS011;29098;48.184;16.298;2023-06-10T02:48:24;7.45;;;5.30;;
43504;SDS011;29098;48.184;16.298;2023-06-10T02:50:49;7.43;;;5.20;;
43504;SDS011;29098;48.184;16.298;2023-06-10T02:53:15;8.35;;;5.13;;
43504;SDS011;29098;48.184;16.298;2023-06-10T02:55:41;7.97;;;5.40;;
43504;SDS011;29098;48.184;16.298;2023-06-10T02:58:06;7.30;;;5.50;;
43504;SDS011;29098;48.184;16.298;2023-06-10T03:00:32;8.80;;;5.70;;
43504;SDS011;29098;48.184;16.298;2023-06-10T03:02:58;8.20;;;5.22;;
43504;SDS011;29098;48.184;16.298;2023-06-10T03:05:25;8.13;;;5.30;;
43504;SDS011;29098;48.184;16.298;2023-06-10T03:07:51;8.70;;;5.15;;
43504;SDS011;29098;48.184;16.298;2023-06-10T03:10:16;8.55;;;5.05;;
43504;SDS011;29098;48.184;16.298;2023-06-10T03:12:41;9.13;;;5.97;;
43504;SDS011;29098;48.184;16.298;2023-06-10T03:15:07;7.55;;;5.60;;
43504;SDS011;29098;48.184;16.298;2023-06-10T03:17:33;7.15;;;4.97;;
43504;SDS011;29098;48.184;16.298;2023-06-10T03:19:58;10.00;;;5.53;;
43504;SDS011;29098;48.184;16.298;2023-06-10T03:22:23;7.97;;;5.72;;
43504;SDS011;29098;48.184;16.298;2023-06-10T03:24:49;7.82;;;4.85;;
43504;SDS011;29098;48.184;16.298;2023-06-10T03:27:15;8.13;;;5.32;;
43504;SDS011;29098;48.184;16.298;2023-06-10T03:29:41;7.30;;;5.15;;
43504;SDS011;29098;48.184;16.298;2023-06-10T03:32:07;9.00;;;5.18;;
43504;SDS011;29098;48.184;16.298;2023-06-10T03:34:32;10.13;;;5.38;;
43504;SDS011;29098;48.184;16.298;2023-06-10T03:36:58;10.18;;;5.90;;
43504;SDS011;29098;48.184;16.298;2023-06-10T03:39:25;8.05;;;5.75;;
43504;SDS011;29098;48.184;16.298;2023-06-10T03:41:53;7.22;;;5.32;;
43504;SDS011;29098;48.184;16.298;2023-06-10T03:44:19;8.63;;;5.38;;
43504;SDS011;29098;48.184;16.298;2023-06-10T03:46:45;8.30;;;5.40;;
43504;SDS011;29098;48.184;16.298;2023-06-10T03:49:10;8.85;;;5.80;;
43504;SDS011;29098;48.184;16.298;2023-06-10T03:51:36;10.07;;;5.57;;
43504;SDS011;29098;48.184;16.298;2023-06-10T03:54:02;8.40;;;5.70;;
43504;SDS011;29098;48.184;16.298;2023-06-10T03:56:28;11.52;;;5.90;;
43504;SDS011;29098;48.184;16.298;2023-06-10T03:58:53;7.13;;;4.70;;
43504;SDS011;29098;48.184;16.298;2023-06-10T04:01:19;10.48;;;5.70;;
43504;SDS011;29098;48.184;16.298;2023-06-10T04:03:46;9.50;;;6.03;;
43504;SDS011;29098;48.184;16.298;2023-06-10T04:06:13;8.48;;;5.57;;
43504;SDS011;29098;48.184;16.298;2023-06-10T04:08:39;9.57;;;6.07;;
43504;SDS011;29098;48.184;16.298;2023-06-10T04:11:04;7.53;;;5.90;;
43504;SDS011;29098;48.184;16.298;2023-06-10T04:13:29;11.00;;;5.88;;
43504;SDS011;29098;48.184;16.298;2023-06-10T04:15:55;9.48;;;5.97;;
43504;SDS011;29098;48.184;16.298;2023-06-10T04:18:20;10.73;;;6.90;;
43504;SDS011;29098;48.184;16.298;2023-06-10T04:20:47;10.82;;;7.03;;
43504;SDS011;29098;48.184;16.298;2023-06-10T04:23:12;12.32;;;7.32;;
43504;SDS011;29098;48.184;16.298;2023-06-10T04:25:38;9.93;;;7.38;;
43504;SDS011;29098;48.184;16.298;2023-06-10T04:28:03;9.73;;;7.40;;
43504;SDS011;29098;48.184;16.298;2023-06-10T04:30:29;10.80;;;8.13;;
43504;SDS011;29098;48.184;16.298;2023-06-10T04:32:56;10.18;;;6.75;;
43504;SDS011;29098;48.184;16.298;2023-06-10T04:35:21;11.10;;;7.25;;
43504;SDS011;29098;48.184;16.298;2023-06-10T04:37:47;11.93;;;8.07;;
43504;SDS011;29098;48.184;16.298;2023-06-10T04:40:12;12.30;;;8.48;;
43504;SDS011;29098;48.184;16.298;2023-06-10T04:42:38;12.45;;;8.65;;
43504;SDS011;29098;48.184;16.298;2023-06-10T04:45:04;14.13;;;8.70;;
43504;SDS011;29098;48.184;16.298;2023-06-10T04:47:30;12.90;;;8.50;;
43504;SDS011;29098;48.184;16.298;2023-06-10T04:49:58;13.45;;;8.80;;
43504;SDS011;29098;48.184;16.298;2023-06-10T04:52:24;12.10;;;8.35;;
43504;SDS011;29098;48.184;16.298;2023-06-10T04:54:49;15.77;;;9.50;;
43504;SDS011;29098;48.184;16.298;2023-06-10T04:57:15;14.40;;;9.25;;
43504;SDS011;29098;48.184;16.298;2023-06-10T04:59:40;13.70;;;9.02;;
43504;SDS011;29098;48.184;16.298;2023-06-10T05:02:06;14.70;;;9.90;;
43504;SDS011;29098;48.184;16.298;2023-06-10T05:04:32;13.45;;;10.10;;
43504;SDS011;29098;48.184;16.298;2023-06-10T05:06:57;14.27;;;9.98;;
43504;SDS011;29098;48.184;16.298;2023-06-10T05:09:23;14.02;;;9.35;;
43504;SDS011;29098;48.184;16.298;2023-06-10T05:11:48;18.30;;;10.35;;
43504;SDS011;29098;48.184;16.298;2023-06-10T05:14:13;15.18;;;10.82;;
43504;SDS011;29098;48.184;16.298;2023-06-10T05:16:41;16.83;;;10.70;;
43504;SDS011;29098;48.184;16.298;2023-06-10T05:19:07;17.45;;;10.45;;
43504;SDS011;29098;48.184;16.298;2023-06-10T05:21:33;20.20;;;12.15;;
43504;SDS011;29098;48.184;16.298;2023-06-10T05:23:58;14.32;;;10.77;;
43504;SDS011;29098;48.184;16.298;2023-06-10T05:26:24;15.90;;;11.45;;
43504;SDS011;29098;48.184;16.298;2023-06-10T05:28:50;17.88;;;11.85;;
43504;SDS011;29098;48.184;16.298;2023-06-10T05:31:15;17.73;;;12.75;;
43504;SDS011;29098;48.184;16.298;2023-06-10T05:33:41;19.50;;;14.82;;
43504;SDS011;29098;48.184;16.298;2023-06-10T05:36:06;17.30;;;12.70;;
43504;SDS011;29098;48.184;16.298;2023-06-10T05:38:32;17.88;;;12.43;;
43504;SDS011;29098;48.184;16.298;2023-06-10T05:40:57;17.48;;;12.98;;
43504;SDS011;29098;48.184;16.298;2023-06-10T05:43:24;16.17;;;12.23;;
43504;SDS011;29098;48.184;16.298;2023-06-10T05:45:49;17.67;;;13.48;;
43504;SDS011;29098;48.184;16.298;2023-06-10T05:48:15;20.45;;;13.23;;
43504;SDS011;29098;48.184;16.298;2023-06-10T05:50:40;21.23;;;14.00;;
43504;SDS011;29098;48.184;16.298;2023-06-10T05:53:07;18.05;;;13.15;;
43504;SDS011;29098;48.184;16.298;2023-06-10T05:55:40;17.88;;;14.10;;
43504;SDS011;29098;48.184;16.298;2023-06-10T05:58:08;21.85;;;14.60;;
43504;SDS011;29098;48.184;16.298;2023-06-10T06:00:34;19.13;;;13.75;;
43504;SDS011;29098;48.184;16.298;2023-06-10T06:03:00;19.17;;;13.65;;
43504;SDS011;29098;48.184;16.298;2023-06-10T06:05:25;19.25;;;14.10;;
43504;SDS011;29098;48.184;16.298;2023-06-10T06:07:51;22.85;;;13.82;;
43504;SDS011;29098;48.184;16.298;2023-06-10T06:10:17;23.15;;;14.25;;
43504;SDS011;29098;48.184;16.298;2023-06-10T06:12:43;22.05;;;15.85;;
43504;SDS011;29098;48.184;16.298;2023-06-10T06:15:09;23.33;;;15.13;;
43504;SDS011;29098;48.184;16.298;2023-06-10T06:17:35;21.10;;;15.02;;
43504;SDS011;29098;48.184;16.298;2023-06-10T06:20:01;19.55;;;13.85;;
43504;SDS011;29098;48.184;16.298;2023-06-10T06:22:27;21.23;;;15.02;;
43504;SDS011;29098;48.184;16.298;2023-06-10T06:24:53;18.05;;;13.10;;
43504;SDS011;29098;48.184;16.298;2023-06-10T06:27:18;22.45;;;14.50;;
43504;SDS011;29098;48.184;16.298;2023-06-10T06:29:43;21.70;;;14.98;;
43504;SDS011;29098;48.184;16.298;2023-06-10T06:32:09;25.13;;;15.40;;
43504;SDS011;29098;48.184;16.298;2023-06-10T06:34:34;22.00;;;15.48;;
43504;SDS011;29098;48.184;16.298;2023-06-10T06:37:00;19.45;;;14.82;;
43504;SDS011;29098;48.184;16.298;2023-06-10T06:39:25;21.52;;;15.00;;
43504;SDS011;29098;48.184;16.298;2023-06-10T06:41:50;22.92;;;16.08;;
43504;SDS011;29098;48.184;16.298;2023-06-10T06:44:16;27.48;;;17.08;;
43504;SDS011;29098;48.184;16.298;2023-06-10T06:46:41;24.83;;;17.65;;
43504;SDS011;29098;48.184;16.298;2023-06-10T06:49:07;27.45;;;17.95;;
43504;SDS011;29098;48.184;16.298;2023-06-10T06:51:32;26.38;;;17.33;;
43504;SDS011;29098;48.184;16.298;2023-06-10T06:53:57;27.10;;;18.55;;
43504;SDS011;29098;48.184;16.298;2023-06-10T06:56:24;27.13;;;18.40;;
43504;SDS011;29098;48.184;16.298;2023-06-10T06:58:50;27.17;;;17.67;;
43504;SDS011;29098;48.184;16.298;2023-06-10T07:01:15;28.05;;;17.88;;
43504;SDS011;29098;48.184;16.298;2023-06-10T07:03:41;25.23;;;16.60;;
43504;SDS011;29098;48.184;16.298;2023-06-10T07:06:06;26.15;;;17.05;;
43504;SDS011;29098;48.184;16.298;2023-06-10T07:08:32;27.75;;;17.98;;
43504;SDS011;29098;48.184;16.298;2023-06-10T07:10:57;27.38;;;17.23;;
43504;SDS011;29098;48.184;16.298;2023-06-10T07:13:23;22.85;;;16.98;;
43504;SDS011;29098;48.184;16.298;2023-06-10T07:15:48;26.08;;;16.23;;
43504;SDS011;29098;48.184;16.298;2023-06-10T07:18:14;25.65;;;16.98;;
43504;SDS011;29098;48.184;16.298;2023-06-10T07:20:41;26.20;;;17.65;;
43504;SDS011;29098;48.184;16.298;2023-06-10T07:23:06;25.42;;;16.73;;
43504;SDS011;29098;48.184;16.298;2023-06-10T07:25:32;24.73;;;17.23;;
43504;SDS011;29098;48.184;16.298;2023-06-10T07:27:57;23.70;;;15.90;;
43504;SDS011;29098;48.184;16.298;2023-06-10T07:30:25;23.63;;;16.10;;
43504;SDS011;29098;48.184;16.298;2023-06-10T07:32:50;22.48;;;15.35;;
43504;SDS011;29098;48.184;16.298;2023-06-10T07:35:16;24.65;;;16.05;;
43504;SDS011;29098;48.184;16.298;2023-06-10T07:37:42;22.85;;;15.90;;
43504;SDS011;29098;48.184;16.298;2023-06-10T07:40:08;22.45;;;15.48;;
43504;SDS011;29098;48.184;16.298;2023-06-10T07:42:34;21.73;;;15.00;;
43504;SDS011;29098;48.184;16.298;2023-06-10T07:45:01;21.55;;;15.38;;
43504;SDS011;29098;48.184;16.298;2023-06-10T07:47:26;20.48;;;15.15;;
43504;SDS011;29098;48.184;16.298;2023-06-10T07:49:52;22.85;;;15.45;;
43504;SDS011;29098;48.184;16.298;2023-06-10T07:52:17;22.50;;;16.08;;
43504;SDS011;29098;48.184;16.298;2023-06-10T07:54:42;19.77;;;15.07;;
43504;SDS011;29098;48.184;16.298;2023-06-10T07:57:08;21.17;;;15.68;;
43504;SDS011;29098;48.184;16.298;2023-06-10T07:59:33;24.02;;;15.82;;
43504;SDS011;29098;48.184;16.298;2023-06-10T08:01:59;20.25;;;14.05;;
43504;SDS011;29098;48.184;16.298;2023-06-10T08:04:24;20.98;;;15.40;;
43504;SDS011;29098;48.184;16.298;2023-06-10T08:06:49;20.65;;;14.75;;
43504;SDS011;29098;48.184;16.298;2023-06-10T08:09:15;19.52;;;14.57;;
43504;SDS011;29098;48.184;16.298;2023-06-10T08:11:41;22.58;;;15.50;;
43504;SDS011;29098;48.184;16.298;2023-06-10T08:14:07;21.40;;;14.38;;
43504;SDS011;29098;48.184;16.298;2023-06-10T08:16:32;19.73;;;14.35;;
43504;SDS011;29098;48.184;16.298;2023-06-10T08:18:57;20.95;;;13.98;;
43504;SDS011;29098;48.184;16.298;2023-06-10T08:21:23;22.52;;;15.32;;
43504;SDS011;29098;48.184;16.298;2023-06-10T08:23:52;20.50;;;15.35;;
43504;SDS011;29098;48.184;16.298;2023-06-10T08:26:18;22.63;;;15.82;;
43504;SDS011;29098;48.184;16.298;2023-06-10T08:28:43;20.23;;;14.95;;
43504;SDS011;29098;48.184;16.298;2023-06-10T08:31:08;20.95;;;15.00;;
43504;SDS011;29098;48.184;16.298;2023-06-10T08:33:34;21.88;;;15.02;;
43504;SDS011;29098;48.184;16.298;2023-06-10T08:35:59;22.20;;;14.77;;
43504;SDS011;29098;48.184;16.298;2023-06-10T08:38:25;19.77;;;14.57;;
43504;SDS011;29098;48.184;16.298;2023-06-10T08:40:50;18.17;;;13.55;;
43504;SDS011;29098;48.184;16.298;2023-06-10T08:45:56;19.95;;;14.93;;
43504;SDS011;29098;48.184;16.298;2023-06-10T08:48:26;17.48;;;13.48;;
43504;SDS011;29098;48.184;16.298;2023-06-10T08:51:00;15.93;;;12.68;;
43504;SDS011;29098;48.184;16.298;2023-06-10T08:53:28;17.90;;;13.07;;
43504;SDS011;29098;48.184;16.298;2023-06-10T08:55:57;17.67;;;12.80;;
43504;SDS011;29098;48.184;16.298;2023-06-10T08:58:25;18.05;;;12.82;;
43504;SDS011;29098;48.184;16.298;2023-06-10T09:00:53;18.10;;;13.27;;
43504;SDS011;29098;48.184;16.298;2023-06-10T09:03:19;16.42;;;11.82;;
43504;SDS011;29098;48.184;16.298;2023-06-10T09:05:45;20.45;;;13.90;;
43504;SDS011;29098;48.184;16.298;2023-06-10T09:08:11;20.92;;;13.10;;
43504;SDS011;29098;48.184;16.298;2023-06-10T09:10:37;13.85;;;11.25;;
43504;SDS011;29098;48.184;16.298;2023-06-10T09:13:03;16.88;;;13.15;;
43504;SDS011;29098;48.184;16.298;2023-06-10T09:15:28;18.67;;;13.15;;
43504;SDS011;29098;48.184;16.298;2023-06-10T09:17:54;13.85;;;10.90;;
43504;SDS011;29098;48.184;16.298;2023-06-10T09:20:19;13.77;;;10.95;;
43504;SDS011;29098;48.184;16.298;2023-06-10T09:22:45;17.88;;;12.63;;
43504;SDS011;29098;48.184;16.298;2023-06-10T09:25:11;16.75;;;12.23;;
43504;SDS011;29098;48.184;16.298;2023-06-10T09:27:49;17.15;;;11.35;;
43504;SDS011;29098;48.184;16.298;2023-06-10T09:30:34;16.88;;;12.40;;
43504;SDS011;29098;48.184;16.298;2023-06-10T09:33:01;18.48;;;13.35;;
43504;SDS011;29098;48.184;16.298;2023-06-10T09:35:28;17.33;;;12.10;;
43504;SDS011;29098;48.184;16.298;2023-06-10T09:37:58;15.82;;;11.88;;
43504;SDS011;29098;48.184;16.298;2023-06-10T09:40:24;18.35;;;11.43;;
43504;SDS011;29098;48.184;16.298;2023-06-10T09:42:54;15.38;;;11.75;;
43504;SDS011;29098;48.184;16.298;2023-06-10T09:45:25;15.77;;;11.93;;
43504;SDS011;29098;48.184;16.298;2023-06-10T09:47:56;14.73;;;11.90;;
43504;SDS011;29098;48.184;16.298;2023-06-10T09:50:21;15.25;;;11.82;;
43504;SDS011;29098;48.184;16.298;2023-06-10T09:52:47;17.67;;;12.25;;
43504;SDS011;29098;48.184;16.298;2023-06-10T09:55:15;14.23;;;11.50;;
43504;SDS011;29098;48.184;16.298;2023-06-10T09:57:42;15.25;;;11.52;;
43504;SDS011;29098;48.184;16.298;2023-06-10T10:00:09;15.63;;;10.93;;
43504;SDS011;29098;48.184;16.298;2023-06-10T10:05:21;15.77;;;11.30;;
43504;SDS011;29098;48.184;16.298;2023-06-10T10:07:47;15.32;;;11.98;;
43504;SDS011;29098;48.184;16.298;2023-06-10T10:10:14;14.15;;;11.57;;
43504;SDS011;29098;48.184;16.298;2023-06-10T10:12:40;14.77;;;11.05;;
43504;SDS011;29098;48.184;16.298;2023-06-10T10:15:07;13.75;;;11.02;;
43504;SDS011;29098;48.184;16.298;2023-06-10T10:17:34;13.68;;;11.25;;
43504;SDS011;29098;48.184;16.298;2023-06-10T10:20:03;14.57;;;10.40;;
43504;SDS011;29098;48.184;16.298;2023-06-10T10:22:40;14.52;;;12.02;;
43504;SDS011;29098;48.184;16.298;2023-06-10T10:25:10;14.48;;;10.68;;
43504;SDS011;29098;48.184;16.298;2023-06-10T10:30:42;16.83;;;11.07;;
43504;SDS011;29098;48.184;16.298;2023-06-10T10:36:18;15.43;;;10.90;;
43504;SDS011;29098;48.184;16.298;2023-06-10T10:38:45;13.65;;;10.77;;
43504;SDS011;29098;48.184;16.298;2023-06-10T10:41:12;13.23;;;10.05;;
43504;SDS011;29098;48.184;16.298;2023-06-10T10:43:39;13.82;;;9.98;;
43504;SDS011;29098;48.184;16.298;2023-06-10T10:46:11;13.75;;;11.32;;
43504;SDS011;29098;48.184;16.298;2023-06-10T10:48:41;15.40;;;11.10;;
43504;SDS011;29098;48.184;16.298;2023-06-10T10:51:08;12.57;;;10.40;;
43504;SDS011;29098;48.184;16.298;2023-06-10T10:53:34;15.60;;;11.82;;
43504;SDS011;29098;48.184;16.298;2023-06-10T10:56:09;13.48;;;10.40;;
43504;SDS011;29098;48.184;16.298;2023-06-10T10:58:38;13.85;;;10.60;;
43504;SDS011;29098;48.184;16.298;2023-06-10T11:01:13;14.50;;;10.90;;
43504;SDS011;29098;48.184;16.298;2023-06-10T11:03:46;15.40;;;10.52;;
43504;SDS011;29098;48.184;16.298;2023-06-10T11:06:14;15.45;;;10.73;;
43504;SDS011;29098;48.184;16.298;2023-06-10T11:14:14;16.58;;;11.18;;
43504;SDS011;29098;48.184;16.298;2023-06-10T11:16:53;11.80;;;9.68;;
43504;SDS011;29098;48.184;16.298;2023-06-10T11:19:32;13.20;;;10.98;;
43504;SDS011;29098;48.184;16.298;2023-06-10T11:22:05;12.70;;;10.18;;
43504;SDS011;29098;48.184;16.298;2023-06-10T11:24:31;13.30;;;10.95;;
43504;SDS011;29098;48.184;16.298;2023-06-10T11:30:28;13.27;;;10.20;;
43504;SDS011;29098;48.184;16.298;2023-06-10T11:32:32;13.60;;;10.18;;
43504;SDS011;29098;48.184;16.298;2023-06-10T11:34:58;13.63;;;10.32;;
43504;SDS011;29098;48.184;16.298;2023-06-10T11:37:24;14.60;;;9.98;;
43504;SDS011;29098;48.184;16.298;2023-06-10T11:39:54;13.50;;;9.52;;
43504;SDS011;29098;48.184;16.298;2023-06-10T11:42:20;12.57;;;9.82;;
43504;SDS011;29098;48.184;16.298;2023-06-10T11:44:53;12.05;;;9.05;;
43504;SDS011;29098;48.184;16.298;2023-06-10T11:47:19;10.70;;;8.27;;
43504;SDS011;29098;48.184;16.298;2023-06-10T11:49:45;12.50;;;9.20;;
43504;SDS011;29098;48.184;16.298;2023-06-10T11:52:25;12.50;;;9.30;;
43504;SDS011;29098;48.184;16.298;2023-06-10T11:54:54;11.30;;;8.70;;
43504;SDS011;29098;48.184;16.298;2023-06-10T11:57:20;10.88;;;8.50;;
43504;SDS011;29098;48.184;16.298;2023-06-10T11:59:45;11.00;;;8.70;;
43504;SDS011;29098;48.184;16.298;2023-06-10T12:02:14;10.93;;;8.90;;
43504;SDS011;29098;48.184;16.298;2023-06-10T12:04:44;10.30;;;8.20;;
43504;SDS011;29098;48.184;16.298;2023-06-10T12:07:14;12.00;;;8.43;;
43504;SDS011;29098;48.184;16.298;2023-06-10T12:09:42;10.95;;;8.88;;
43504;SDS011;29098;48.184;16.298;2023-06-10T12:12:07;11.07;;;8.18;;
43504;SDS011;29098;48.184;16.298;2023-06-10T12:20:05;11.35;;;9.02;;
43504;SDS011;29098;48.184;16.298;2023-06-10T12:22:39;10.60;;;7.90;;
43504;SDS011;29098;48.184;16.298;2023-06-10T12:25:08;15.25;;;8.30;;
43504;SDS011;29098;48.184;16.298;2023-06-10T12:27:35;10.35;;;7.80;;
43504;SDS011;29098;48.184;16.298;2023-06-10T12:30:02;10.55;;;8.30;;
43504;SDS011;29098;48.184;16.298;2023-06-10T12:37:30;11.23;;;7.25;;
43504;SDS011;29098;48.184;16.298;2023-06-10T12:39:59;10.15;;;7.60;;
43504;SDS011;29098;48.184;16.298;2023-06-10T12:42:25;9.15;;;7.13;;
43504;SDS011;29098;48.184;16.298;2023-06-10T12:44:53;11.02;;;8.20;;
43504;SDS011;29098;48.184;16.298;2023-06-10T12:47:19;10.25;;;8.25;;
43504;SDS011;29098;48.184;16.298;2023-06-10T12:49:45;11.20;;;7.53;;
43504;SDS011;29098;48.184;16.298;2023-06-10T12:52:11;9.30;;;6.85;;
43504;SDS011;29098;48.184;16.298;2023-06-10T12:54:37;9.57;;;7.20;;
43504;SDS011;29098;48.184;16.298;2023-06-10T12:57:03;9.35;;;7.72;;
43504;SDS011;29098;48.184;16.298;2023-06-10T12:59:28;10.80;;;7.63;;
43504;SDS011;29098;48.184;16.298;2023-06-10T13:01:54;15.02;;;10.35;;
43504;SDS011;29098;48.184;16.298;2023-06-10T13:04:20;14.10;;;10.13;;
43504;SDS011;29098;48.184;16.298;2023-06-10T13:06:46;12.38;;;8.65;;
43504;SDS011;29098;48.184;16.298;2023-06-10T13:09:12;15.50;;;10.98;;
43504;SDS011;29098;48.184;16.298;2023-06-10T13:11:38;12.93;;;10.13;;
43504;SDS011;29098;48.184;16.298;2023-06-10T13:14:05;14.02;;;10.70;;
43504;SDS011;29098;48.184;16.298;2023-06-10T13:16:31;13.00;;;11.35;;
43504;SDS011;29098;48.184;16.298;2023-06-10T13:18:57;12.27;;;9.93;;
43504;SDS011;29098;48.184;16.298;2023-06-10T13:21:23;13.32;;;10.15;;
43504;SDS011;29098;48.184;16.298;2023-06-10T13:23:50;14.70;;;10.02;;
43504;SDS011;29098;48.184;16.298;2023-06-10T13:26:16;12.82;;;10.25;;
43504;SDS011;29098;48.184;16.298;2023-06-10T13:28:42;12.27;;;9.73;;
43504;SDS011;29098;48.184;16.298;2023-06-10T13:31:08;13.70;;;10.13;;
43504;SDS011;29098;48.184;16.298;2023-06-10T13:33:34;13.82;;;10.38;;
43504;SDS011;29098;48.184;16.298;2023-06-10T13:35:59;12.25;;;9.93;;
43504;SDS011;29098;48.184;16.298;2023-06-10T13:38:24;13.30;;;9.93;;
43504;SDS011;29098;48.184;16.298;2023-06-10T13:40:50;11.23;;;9.70;;
43504;SDS011;29098;48.184;16.298;2023-06-10T13:43:16;11.13;;;8.20;;
43504;SDS011;29098;48.184;16.298;2023-06-10T13:45:41;10.00;;;8.48;;
43504;SDS011;29098;48.184;16.298;2023-06-10T13:48:07;12.45;;;9.32;;
43504;SDS011;29098;48.184;16.298;2023-06-10T13:50:33;11.68;;;8.35;;
43504;SDS011;29098;48.184;16.298;2023-06-10T13:52:59;11.52;;;8.80;;
43504;SDS011;29098;48.184;16.298;2023-06-10T13:55:24;11.52;;;8.93;;
43504;SDS011;29098;48.184;16.298;2023-06-10T13:57:50;12.55;;;9.27;;
43504;SDS011;29098;48.184;16.298;2023-06-10T14:00:15;10.55;;;8.32;;
43504;SDS011;29098;48.184;16.298;2023-06-10T14:02:41;11.73;;;10.32;;
43504;SDS011;29098;48.184;16.298;2023-06-10T14:05:07;11.55;;;9.15;;
43504;SDS011;29098;48.184;16.298;2023-06-10T14:07:33;13.18;;;9.82;;
43504;SDS011;29098;48.184;16.298;2023-06-10T14:09:59;11.40;;;9.68;;
43504;SDS011;29098;48.184;16.298;2023-06-10T14:12:25;11.13;;;8.73;;
43504;SDS011;29098;48.184;16.298;2023-06-10T14:14:50;13.27;;;10.02;;
43504;SDS011;29098;48.184;16.298;2023-06-10T14:17:15;12.75;;;8.98;;
43504;SDS011;29098;48.184;16.298;2023-06-10T14:19:41;12.00;;;9.98;;
43504;SDS011;29098;48.184;16.298;2023-06-10T14:22:06;11.48;;;8.80;;
43504;SDS011;29098;48.184;16.298;2023-06-10T14:24:32;10.10;;;9.02;;
43504;SDS011;29098;48.184;16.298;2023-06-10T14:26:58;11.57;;;9.07;;
43504;SDS011;29098;48.184;16.298;2023-06-10T14:29:23;12.13;;;9.55;;
43504;SDS011;29098;48.184;16.298;2023-06-10T14:31:52;12.43;;;9.60;;
43504;SDS011;29098;48.184;16.298;2023-06-10T14:34:17;9.82;;;8.70;;
43504;SDS011;29098;48.184;16.298;2023-06-10T14:36:43;10.48;;;8.45;;
43504;SDS011;29098;48.184;16.298;2023-06-10T14:39:08;10.63;;;8.77;;
43504;SDS011;29098;48.184;16.298;2023-06-10T14:41:34;10.57;;;8.55;;
43504;SDS011;29098;48.184;16.298;2023-06-10T14:43:59;12.57;;;8.85;;
43504;SDS011;29098;48.184;16.298;2023-06-10T14:46:25;11.40;;;9.57;;
43504;SDS011;29098;48.184;16.298;2023-06-10T14:48:50;10.85;;;8.63;;